createdAt,value
2017-09-08T00:00:47.479Z,7.00
2017-09-08T00:03:15.066Z,7.60
2017-09-08T00:05:43.502Z,6.90
2017-09-08T00:08:11.872Z,7.47
2017-09-08T00:10:39.425Z,5.63
2017-09-08T00:13:07.003Z,7.13
2017-09-08T00:15:35.400Z,6.63
2017-09-08T00:18:03.933Z,7.07
2017-09-08T00:20:32.264Z,7.10
2017-09-08T00:22:59.807Z,6.73
2017-09-08T00:25:27.534Z,6.90
2017-09-08T00:27:55.845Z,7.53
2017-09-08T00:30:23.515Z,6.07
2017-09-08T00:32:51.102Z,7.50
2017-09-08T00:35:18.680Z,5.83
2017-09-08T00:37:46.245Z,6.43
2017-09-08T00:40:13.818Z,7.37
2017-09-08T00:42:42.245Z,7.50
2017-09-08T00:45:09.862Z,6.70
2017-09-08T00:47:37.476Z,7.00
2017-09-08T00:50:05.035Z,6.30
2017-09-08T00:52:32.711Z,6.70
2017-09-08T00:55:00.280Z,5.53
2017-09-08T00:57:27.819Z,5.60
2017-09-08T00:59:55.396Z,7.50
2017-09-08T01:02:22.955Z,6.27
2017-09-08T01:04:50.544Z,6.87
2017-09-08T01:07:18.117Z,5.40
2017-09-08T01:09:45.723Z,7.40
2017-09-08T01:12:14.206Z,6.67
2017-09-08T01:14:41.869Z,5.97
2017-09-08T01:17:09.579Z,7.43
2017-09-08T01:19:37.149Z,6.17
2017-09-08T01:22:05.475Z,7.50
2017-09-08T01:24:33.038Z,6.50
2017-09-08T01:27:00.628Z,8.30
2017-09-08T01:29:28.233Z,7.30
2017-09-08T01:31:55.810Z,6.70
2017-09-08T01:34:24.140Z,6.00
2017-09-08T01:36:51.749Z,6.00
2017-09-08T01:39:19.333Z,6.23
2017-09-08T01:41:46.905Z,6.87
2017-09-08T01:44:14.462Z,5.97
2017-09-08T01:46:42.039Z,6.07
2017-09-08T01:49:09.599Z,5.50
2017-09-08T01:51:37.178Z,7.00
2017-09-08T01:54:04.737Z,5.87
2017-09-08T01:56:32.323Z,6.90
2017-09-08T01:58:59.871Z,6.13
2017-09-08T02:01:28.206Z,7.23
2017-09-08T02:03:55.818Z,6.10
2017-09-08T02:06:24.167Z,6.27
2017-09-08T02:08:51.765Z,7.10
2017-09-08T02:11:20.079Z,5.70
2017-09-08T02:13:47.662Z,5.97
2017-09-08T02:16:15.809Z,6.20
2017-09-08T02:18:43.395Z,5.80
2017-09-08T02:21:10.963Z,5.63
2017-09-08T02:23:38.516Z,4.97
2017-09-08T02:26:06.117Z,5.30
2017-09-08T02:28:33.669Z,5.37
2017-09-08T02:31:01.317Z,6.60
2017-09-08T02:33:28.891Z,5.80
2017-09-08T02:35:56.482Z,6.20
2017-09-08T02:38:24.050Z,5.90
2017-09-08T02:40:52.503Z,5.97
2017-09-08T02:43:20.069Z,5.77
2017-09-08T02:45:47.627Z,5.97
2017-09-08T02:48:15.210Z,5.90
2017-09-08T02:50:43.611Z,6.80
2017-09-08T02:53:11.948Z,5.70
2017-09-08T02:55:39.535Z,7.13
2017-09-08T02:58:07.994Z,6.60
2017-09-08T03:00:35.590Z,6.00
2017-09-08T03:03:04.031Z,6.73
2017-09-08T03:05:32.279Z,6.37
2017-09-08T03:07:59.849Z,6.87
2017-09-08T03:10:27.432Z,6.23
2017-09-08T03:12:54.995Z,5.93
2017-09-08T03:15:22.558Z,6.50
2017-09-08T03:17:50.160Z,6.77
2017-09-08T03:20:17.730Z,5.40
2017-09-08T03:22:45.311Z,6.20
2017-09-08T03:25:12.886Z,6.30
2017-09-08T03:27:40.446Z,6.43
2017-09-08T03:30:08.054Z,5.67
2017-09-08T03:32:36.382Z,5.83
2017-09-08T03:35:03.982Z,6.83
2017-09-08T03:37:31.573Z,5.50
2017-09-08T03:39:59.147Z,5.73
2017-09-08T03:42:26.730Z,5.00
2017-09-08T03:44:54.314Z,5.60
2017-09-08T03:47:21.879Z,6.50
2017-09-08T03:49:49.449Z,5.30
2017-09-08T03:52:17.039Z,6.97
2017-09-08T03:54:45.354Z,5.90
2017-09-08T03:57:12.934Z,5.77
2017-09-08T03:59:41.260Z,5.30
2017-09-08T04:02:08.914Z,5.93
2017-09-08T04:04:36.477Z,5.63
2017-09-08T04:07:04.082Z,5.77
2017-09-08T04:09:31.626Z,5.17
2017-09-08T04:11:59.182Z,5.40
2017-09-08T04:14:26.771Z,4.40
2017-09-08T04:16:54.330Z,5.27
2017-09-08T04:19:21.902Z,4.87
2017-09-08T04:21:49.466Z,5.13
2017-09-08T04:24:17.030Z,5.90
2017-09-08T04:26:44.582Z,5.20
2017-09-08T04:29:12.137Z,5.43
2017-09-08T04:31:39.730Z,5.20
2017-09-08T04:34:08.073Z,5.30
2017-09-08T04:36:35.730Z,6.27
2017-09-08T04:39:03.320Z,4.80
2017-09-08T04:41:31.039Z,4.77
2017-09-08T04:43:58.645Z,6.17
2017-09-08T04:46:26.273Z,4.33
2017-09-08T04:48:53.868Z,4.90
2017-09-08T04:51:21.455Z,4.20
2017-09-08T04:53:49.806Z,4.50
2017-09-08T04:56:17.361Z,4.50
2017-09-08T04:58:45.029Z,4.57
2017-09-08T05:01:12.606Z,4.40
2017-09-08T05:03:40.152Z,4.80
2017-09-08T05:06:07.760Z,6.00
2017-09-08T05:08:36.086Z,3.90
2017-09-08T05:11:03.645Z,4.60
2017-09-08T05:13:31.350Z,6.27
2017-09-08T05:15:58.903Z,5.83
2017-09-08T05:18:26.483Z,4.90
2017-09-08T05:20:54.797Z,4.20
2017-09-08T05:23:22.382Z,5.03
2017-09-08T05:25:49.946Z,5.33
2017-09-08T05:28:17.509Z,5.60
2017-09-08T05:30:45.170Z,4.77
2017-09-08T05:33:12.741Z,4.90
2017-09-08T05:35:40.305Z,5.63
2017-09-08T05:38:07.885Z,4.60
2017-09-08T05:40:36.214Z,5.03
2017-09-08T05:43:03.816Z,5.13
2017-09-08T05:45:31.370Z,5.57
2017-09-08T05:47:59.138Z,4.13
2017-09-08T05:50:26.685Z,4.10
2017-09-08T05:52:54.245Z,4.70
2017-09-08T05:55:21.851Z,4.77
2017-09-08T05:57:50.190Z,4.30
2017-09-08T06:00:17.757Z,4.70
2017-09-08T06:02:45.323Z,4.37
2017-09-08T06:05:12.887Z,5.40
2017-09-08T06:07:40.471Z,4.30
2017-09-08T06:10:08.801Z,4.60
2017-09-08T06:12:36.387Z,4.77
2017-09-08T06:15:03.995Z,4.80
2017-09-08T06:17:32.389Z,3.63
2017-09-08T06:20:00.035Z,4.80
2017-09-08T06:22:28.390Z,4.00
2017-09-08T06:24:55.983Z,4.20
2017-09-08T06:27:23.539Z,5.60
2017-09-08T06:29:51.104Z,5.27
2017-09-08T06:32:18.705Z,4.03
2017-09-08T06:34:46.339Z,4.03
2017-09-08T06:37:13.934Z,4.13
2017-09-08T06:39:41.525Z,4.43
2017-09-08T06:42:09.855Z,4.10
2017-09-08T06:44:37.461Z,4.00
2017-09-08T06:47:05.054Z,4.13
2017-09-08T06:49:32.666Z,3.60
2017-09-08T06:52:00.221Z,5.30
2017-09-08T06:54:27.786Z,4.70
2017-09-08T06:56:55.371Z,4.07
2017-09-08T06:59:22.946Z,5.67
2017-09-08T07:01:51.308Z,3.50
2017-09-08T07:04:19.644Z,3.30
2017-09-08T07:06:47.209Z,4.07
2017-09-08T07:09:14.787Z,3.70
2017-09-08T07:11:42.333Z,3.73
2017-09-08T07:14:09.910Z,3.80
2017-09-08T07:16:37.480Z,3.47
2017-09-08T07:19:05.055Z,4.23
2017-09-08T07:21:32.651Z,4.33
2017-09-08T07:24:01.080Z,4.20
2017-09-08T07:26:28.663Z,4.23
2017-09-08T07:28:56.238Z,4.40
2017-09-08T07:31:23.824Z,4.17
2017-09-08T07:33:51.407Z,4.00
2017-09-08T07:36:19.725Z,3.90
2017-09-08T07:38:48.121Z,3.83
2017-09-08T07:41:15.807Z,3.90
2017-09-08T07:43:43.409Z,5.07
2017-09-08T07:46:10.995Z,5.10
2017-09-08T07:48:38.540Z,4.57
2017-09-08T07:51:06.154Z,4.00
2017-09-08T07:53:33.732Z,3.77
2017-09-08T07:56:02.062Z,3.90
2017-09-08T07:58:29.634Z,3.47
2017-09-08T08:00:57.206Z,3.50
2017-09-08T08:03:24.783Z,5.33
2017-09-08T08:05:52.361Z,5.00
2017-09-08T08:08:20.710Z,4.67
2017-09-08T08:10:48.277Z,3.73
2017-09-08T08:13:15.896Z,4.03
2017-09-08T08:15:43.448Z,3.10
2017-09-08T08:18:11.048Z,4.10
2017-09-08T08:20:38.650Z,3.97
2017-09-08T08:23:06.308Z,3.90
2017-09-08T08:25:34.640Z,3.47
2017-09-08T08:28:02.262Z,4.20
2017-09-08T08:30:30.604Z,3.77
2017-09-08T08:32:58.186Z,3.77
2017-09-08T08:35:25.767Z,4.43
2017-09-08T08:37:54.099Z,3.50
2017-09-08T08:40:21.736Z,4.57
2017-09-08T08:42:49.418Z,3.80
2017-09-08T08:45:17.001Z,3.07
2017-09-08T08:47:44.626Z,4.30
2017-09-08T08:50:12.213Z,3.50
2017-09-08T08:52:39.806Z,3.30
2017-09-08T08:55:08.175Z,2.77
2017-09-08T08:57:35.746Z,3.13
2017-09-08T09:00:03.306Z,3.53
2017-09-08T09:02:31.662Z,3.40
2017-09-08T09:04:59.282Z,3.90
2017-09-08T09:07:26.864Z,4.23
2017-09-08T09:09:54.446Z,2.97
2017-09-08T09:12:22.033Z,2.60
2017-09-08T09:14:49.638Z,3.50
2017-09-08T09:17:17.229Z,3.53
2017-09-08T09:19:44.781Z,4.23
2017-09-08T09:22:12.367Z,3.23
2017-09-08T09:24:40.022Z,8.70
2017-09-08T09:27:07.644Z,5.97
2017-09-08T09:29:35.208Z,2.90
2017-09-08T09:32:02.803Z,3.67
2017-09-08T09:34:30.350Z,2.67
2017-09-08T09:36:57.947Z,3.30
2017-09-08T09:39:25.541Z,2.57
2017-09-08T09:41:54.094Z,5.53
2017-09-08T09:44:21.879Z,3.27
2017-09-08T09:46:50.274Z,4.27
2017-09-08T09:49:18.596Z,2.83
2017-09-08T09:51:46.193Z,3.37
2017-09-08T09:54:13.794Z,3.00
2017-09-08T09:56:41.475Z,2.83
2017-09-08T09:59:09.044Z,3.53
2017-09-08T10:01:36.645Z,3.87
2017-09-08T10:04:04.259Z,3.37
2017-09-08T10:06:31.851Z,3.27
2017-09-08T10:08:59.529Z,3.67
2017-09-08T10:11:27.086Z,3.60
2017-09-08T10:13:54.676Z,3.47
2017-09-08T10:16:23.036Z,3.20
2017-09-08T10:18:50.719Z,2.93
2017-09-08T10:21:19.083Z,3.13
2017-09-08T10:23:47.540Z,3.97
2017-09-08T10:26:15.232Z,3.60
2017-09-08T10:28:42.892Z,3.73
2017-09-08T10:31:11.314Z,3.53
2017-09-08T10:33:38.935Z,3.87
2017-09-08T10:36:06.567Z,3.00
2017-09-08T10:38:34.220Z,3.00
2017-09-08T10:41:02.685Z,4.20
2017-09-08T10:43:30.425Z,3.60
2017-09-08T10:45:58.051Z,3.27
2017-09-08T10:48:25.923Z,3.43
2017-09-08T10:50:53.554Z,2.60
2017-09-08T10:53:22.019Z,3.30
2017-09-08T10:55:49.601Z,3.10
2017-09-08T10:58:17.190Z,3.83
2017-09-08T11:00:45.517Z,2.83
2017-09-08T11:03:13.101Z,2.87
2017-09-08T11:05:40.796Z,3.53
2017-09-08T11:08:09.256Z,2.83
2017-09-08T11:10:36.989Z,2.50
2017-09-08T11:13:04.617Z,3.33
2017-09-08T11:15:32.263Z,2.97
2017-09-08T11:18:00.608Z,2.30
2017-09-08T11:20:28.254Z,3.23
2017-09-08T11:22:55.941Z,2.83
2017-09-08T11:25:24.308Z,2.87
2017-09-08T11:27:51.866Z,3.17
2017-09-08T11:30:19.444Z,2.90
2017-09-08T11:32:53.447Z,2.80
2017-09-08T11:35:27.359Z,2.40
2017-09-08T11:37:55.885Z,2.27
2017-09-08T11:40:23.490Z,2.50
2017-09-08T11:42:51.114Z,2.83
2017-09-08T11:45:18.699Z,2.67
2017-09-08T11:47:46.311Z,2.50
2017-09-08T11:50:14.669Z,2.53
2017-09-08T11:52:42.226Z,2.40
2017-09-08T11:55:09.801Z,3.00
2017-09-08T11:57:38.151Z,2.17
2017-09-08T12:00:05.889Z,2.73
2017-09-08T12:02:33.457Z,2.60
2017-09-08T12:05:01.053Z,3.20
2017-09-08T12:07:29.460Z,2.90
2017-09-08T12:09:57.246Z,3.17
2017-09-08T12:12:24.801Z,2.50
2017-09-08T12:14:52.422Z,2.00
2017-09-08T12:17:20.761Z,2.30
2017-09-08T12:19:48.430Z,2.47
2017-09-08T12:22:16.018Z,3.50
2017-09-08T12:24:43.638Z,2.10
2017-09-08T12:27:11.231Z,2.60
2017-09-08T12:29:38.789Z,2.20
2017-09-08T12:32:06.428Z,2.30
2017-09-08T12:34:33.995Z,2.50
2017-09-08T12:37:01.587Z,3.13
2017-09-08T12:39:29.166Z,2.07
2017-09-08T12:41:57.562Z,2.20
2017-09-08T12:44:25.929Z,2.03
2017-09-08T12:46:54.279Z,1.90
2017-09-08T12:49:22.071Z,2.70
2017-09-08T12:51:49.623Z,2.00
2017-09-08T12:54:17.196Z,2.10
2017-09-08T12:56:44.790Z,2.20
2017-09-08T12:59:12.387Z,2.50
2017-09-08T13:01:40.241Z,2.57
2017-09-08T13:04:08.865Z,2.50
2017-09-08T13:06:36.488Z,2.67
2017-09-08T13:09:04.069Z,2.70
2017-09-08T13:11:31.644Z,2.70
2017-09-08T13:13:59.199Z,1.90
2017-09-08T13:16:26.825Z,2.50
2017-09-08T13:18:54.399Z,2.67
2017-09-08T13:21:21.959Z,1.90
2017-09-08T13:23:49.550Z,1.90
2017-09-08T13:26:17.132Z,2.20
2017-09-08T13:28:44.681Z,2.30
2017-09-08T13:31:12.276Z,2.00
2017-09-08T13:33:40.649Z,2.97
2017-09-08T13:36:08.974Z,2.03
2017-09-08T13:38:36.564Z,2.60
2017-09-08T13:41:04.151Z,2.83
2017-09-08T13:43:32.529Z,2.33
2017-09-08T13:46:00.897Z,2.40
2017-09-08T13:48:28.484Z,2.40
2017-09-08T13:50:56.857Z,2.40
2017-09-08T13:53:25.225Z,1.70
2017-09-08T13:55:53.561Z,2.10
2017-09-08T13:58:21.613Z,2.07
2017-09-08T14:00:49.189Z,2.13
2017-09-08T14:03:16.750Z,1.70
2017-09-08T14:05:44.345Z,2.37
2017-09-08T14:08:11.972Z,2.40
2017-09-08T14:10:39.555Z,1.90
2017-09-08T14:13:07.202Z,2.57
2017-09-08T14:15:34.772Z,2.90
2017-09-08T14:18:02.346Z,1.53
2017-09-08T14:20:29.946Z,1.70
2017-09-08T14:22:57.546Z,1.80
2017-09-08T14:25:25.133Z,1.33
2017-09-08T14:27:52.776Z,1.10
2017-09-08T14:30:20.354Z,1.47
2017-09-08T14:32:47.905Z,1.40
2017-09-08T14:35:16.532Z,1.47
2017-09-08T14:37:44.886Z,1.60
2017-09-08T14:40:12.467Z,1.40
2017-09-08T14:42:40.086Z,1.30
2017-09-08T14:45:07.712Z,1.50
2017-09-08T14:47:36.051Z,1.53
2017-09-08T14:50:03.653Z,1.47
2017-09-08T14:52:32.008Z,1.50
2017-09-08T14:55:01.694Z,1.60
2017-09-08T14:57:29.263Z,1.40
2017-09-08T14:59:56.833Z,1.30
2017-09-08T15:02:24.381Z,1.70
2017-09-08T15:04:51.979Z,1.60
2017-09-08T15:07:19.516Z,1.30
2017-09-08T15:09:47.112Z,1.50
2017-09-08T15:12:25.187Z,1.40
2017-09-08T15:14:52.760Z,1.70
2017-09-08T15:17:20.341Z,1.40
2017-09-08T15:19:47.934Z,1.40
2017-09-08T15:22:16.303Z,1.50
2017-09-08T15:24:43.875Z,1.80
2017-09-08T15:27:12.233Z,1.50
2017-09-08T15:29:39.806Z,1.40
2017-09-08T15:32:07.377Z,1.60
2017-09-08T15:34:34.962Z,1.30
2017-09-08T15:37:03.286Z,1.47
2017-09-08T15:39:30.867Z,1.20
2017-09-08T15:41:58.437Z,1.60
2017-09-08T15:44:26.057Z,1.50
2017-09-08T15:46:53.669Z,1.20
2017-09-08T15:49:22.006Z,1.40
2017-09-08T15:51:49.576Z,1.10
2017-09-08T15:54:17.195Z,1.27
2017-09-08T15:56:44.793Z,1.40
2017-09-08T15:59:12.391Z,1.50
2017-09-08T16:01:39.955Z,1.60
2017-09-08T16:04:07.535Z,1.90
2017-09-08T16:06:35.108Z,1.90
2017-09-08T16:09:02.710Z,1.53
2017-09-08T16:11:31.072Z,1.63
2017-09-08T16:13:58.668Z,1.90
2017-09-08T16:16:26.268Z,2.10
2017-09-08T16:18:53.835Z,2.13
2017-09-08T16:21:21.484Z,2.30
2017-09-08T16:23:49.066Z,2.40
2017-09-08T16:26:16.662Z,2.80
2017-09-08T16:28:45.094Z,3.40
2017-09-08T16:31:12.687Z,6.50
2017-09-08T16:33:40.271Z,4.50
2017-09-08T16:36:08.653Z,3.60
2017-09-08T16:38:37.040Z,8.83
2017-09-08T16:41:04.635Z,4.17
2017-09-08T16:43:32.210Z,3.43
2017-09-08T16:45:59.827Z,4.20
2017-09-08T16:48:27.433Z,2.73
2017-09-08T16:50:55.017Z,2.73
2017-09-08T16:53:22.572Z,5.07
2017-09-08T16:55:50.180Z,3.60
2017-09-08T16:58:17.772Z,3.90
2017-09-08T17:00:45.359Z,2.97
2017-09-08T17:03:12.966Z,3.70
2017-09-08T17:05:41.303Z,3.00
2017-09-08T17:08:08.906Z,3.20
2017-09-08T17:10:36.550Z,2.70
2017-09-08T17:13:04.886Z,2.97
2017-09-08T17:15:32.480Z,2.97
2017-09-08T17:18:00.032Z,2.63
2017-09-08T17:20:27.612Z,2.70
2017-09-08T17:22:55.189Z,2.50
2017-09-08T17:25:23.558Z,3.00
2017-09-08T17:27:51.119Z,2.50
2017-09-08T17:30:19.493Z,3.37
2017-09-08T17:32:47.910Z,2.97
2017-09-08T17:35:15.648Z,2.60
2017-09-08T17:37:43.287Z,3.07
2017-09-08T17:40:10.927Z,2.57
2017-09-08T17:42:38.531Z,3.03
2017-09-08T17:45:07.000Z,2.77
2017-09-08T17:47:34.703Z,2.67
2017-09-08T17:50:03.273Z,3.00
2017-09-08T17:52:31.852Z,2.83
2017-09-08T17:54:59.446Z,2.80
2017-09-08T17:57:27.862Z,2.87
2017-09-08T17:59:55.641Z,3.40
2017-09-08T18:02:23.249Z,3.17
2017-09-08T18:04:51.047Z,2.47
2017-09-08T18:07:18.832Z,2.83
2017-09-08T18:09:46.478Z,3.20
2017-09-08T18:12:14.155Z,3.07
2017-09-08T18:14:41.886Z,3.20
2017-09-08T18:17:09.975Z,4.00
2017-09-08T18:19:37.909Z,3.43
2017-09-08T18:22:05.690Z,3.40
2017-09-08T18:24:33.302Z,3.90
2017-09-08T18:27:00.953Z,4.20
2017-09-08T18:29:28.522Z,5.37
2017-09-08T18:31:56.215Z,5.20
2017-09-08T18:34:24.886Z,5.13
2017-09-08T18:36:52.534Z,4.73
2017-09-08T18:39:20.536Z,5.70
2017-09-08T18:41:49.263Z,4.47
2017-09-08T18:44:17.260Z,4.50
2017-09-08T18:46:45.821Z,5.10
2017-09-08T18:49:16.402Z,4.50
2017-09-08T18:51:44.165Z,4.67
2017-09-08T18:54:11.840Z,3.90
2017-09-08T19:02:35.167Z,3.80
2017-09-08T19:05:03.558Z,4.93
2017-09-08T19:07:31.942Z,4.33
2017-09-08T19:10:00.266Z,4.37
2017-09-08T19:12:27.948Z,4.27
2017-09-08T19:14:55.527Z,3.73
2017-09-08T19:17:23.937Z,5.83
2017-09-08T19:19:52.434Z,4.00
2017-09-08T19:22:20.243Z,4.00
2017-09-08T19:24:48.088Z,3.60
2017-09-08T19:27:15.673Z,3.37
2017-09-08T19:29:43.269Z,3.70
2017-09-08T19:32:11.035Z,4.17
2017-09-08T19:34:39.507Z,4.50
2017-09-08T19:37:07.503Z,3.83
2017-09-08T19:39:35.396Z,3.60
2017-09-08T19:42:03.033Z,3.97
2017-09-08T19:44:30.668Z,4.00
2017-09-08T19:46:59.051Z,3.90
2017-09-08T19:49:27.468Z,3.60
2017-09-08T19:51:55.274Z,4.80
2017-09-08T19:54:22.890Z,4.20
2017-09-08T19:56:50.489Z,4.10
2017-09-08T19:59:18.497Z,4.60
2017-09-08T20:01:46.861Z,4.23
2017-09-08T20:04:15.233Z,4.17
2017-09-08T20:06:42.847Z,3.83
2017-09-08T20:09:10.463Z,3.40
2017-09-08T20:11:38.814Z,4.30
2017-09-08T20:14:06.387Z,3.60
2017-09-08T20:16:33.993Z,3.83
2017-09-08T20:19:02.786Z,4.47
2017-09-08T20:21:31.165Z,3.93
2017-09-08T20:23:59.498Z,4.83
2017-09-08T20:26:27.847Z,4.60
2017-09-08T20:28:55.450Z,5.40
2017-09-08T20:31:23.805Z,4.90
2017-09-08T20:33:51.422Z,5.93
2017-09-08T20:36:19.749Z,4.80
2017-09-08T20:38:47.372Z,5.33
2017-09-08T20:41:15.717Z,5.37
2017-09-08T20:43:43.268Z,5.43
2017-09-08T20:46:10.866Z,5.00
2017-09-08T20:48:39.244Z,5.60
2017-09-08T20:51:07.587Z,4.73
2017-09-08T20:53:35.162Z,5.53
2017-09-08T20:56:02.763Z,4.37
2017-09-08T20:58:30.370Z,4.70
2017-09-08T21:00:57.927Z,4.30
2017-09-08T21:03:25.519Z,4.10
2017-09-08T21:05:53.836Z,4.90
2017-09-08T21:08:21.408Z,3.60
2017-09-08T21:10:49.047Z,3.60
2017-09-08T21:13:16.611Z,3.83
2017-09-08T21:15:44.202Z,4.20
2017-09-08T21:18:12.026Z,4.67
2017-09-08T21:20:39.606Z,4.50
2017-09-08T21:23:07.182Z,4.00
2017-09-08T21:25:34.889Z,4.60
2017-09-08T21:28:02.441Z,4.17
2017-09-08T21:30:30.003Z,3.97
2017-09-08T21:32:57.588Z,4.60
2017-09-08T21:35:25.939Z,4.30
2017-09-08T21:37:53.505Z,4.00
2017-09-08T21:40:21.091Z,3.63
2017-09-08T21:42:49.458Z,3.30
2017-09-08T21:45:17.030Z,3.27
2017-09-08T21:47:44.603Z,3.13
2017-09-08T21:50:13.139Z,2.77
2017-09-08T21:52:40.689Z,2.77
2017-09-08T21:55:08.276Z,2.80
2017-09-08T21:57:35.842Z,3.30
2017-09-08T22:00:03.575Z,3.07
2017-09-08T22:02:31.185Z,3.40
2017-09-08T22:04:58.767Z,4.07
2017-09-08T22:07:27.795Z,3.73
2017-09-08T22:09:55.360Z,4.13
2017-09-08T22:12:23.867Z,4.10
2017-09-08T22:14:51.467Z,4.50
2017-09-08T22:17:19.798Z,4.33
2017-09-08T22:19:47.367Z,4.60
2017-09-08T22:22:14.912Z,4.50
2017-09-08T22:24:42.479Z,4.77
2017-09-08T22:27:10.088Z,4.80
2017-09-08T22:29:37.679Z,4.57
2017-09-08T22:32:05.450Z,5.13
2017-09-08T22:34:33.730Z,3.87
2017-09-08T22:37:01.642Z,4.20
2017-09-08T22:39:29.211Z,4.90
2017-09-08T22:41:56.773Z,5.80
2017-09-08T22:44:24.370Z,5.47
2017-09-08T22:46:52.717Z,5.00
2017-09-08T22:49:20.368Z,5.60
2017-09-08T22:51:47.946Z,5.60
2017-09-08T22:54:16.396Z,5.80
2017-09-08T22:56:44.074Z,6.40
2017-09-08T22:59:11.857Z,6.47
2017-09-08T23:01:39.490Z,5.90
2017-09-08T23:04:07.072Z,6.03
2017-09-08T23:06:34.731Z,6.37
2017-09-08T23:09:02.310Z,6.93
2017-09-08T23:11:29.896Z,5.60
2017-09-08T23:13:57.488Z,6.40
2017-09-08T23:16:25.056Z,7.00
2017-09-08T23:18:52.655Z,5.93
2017-09-08T23:21:20.221Z,5.30
2017-09-08T23:23:47.815Z,5.30
2017-09-08T23:26:15.454Z,5.90
2017-09-08T23:28:43.941Z,5.10
2017-09-08T23:31:12.267Z,5.23
2017-09-08T23:33:39.985Z,5.30
2017-09-08T23:36:08.379Z,4.70
2017-09-08T23:38:36.869Z,5.30
2017-09-08T23:41:04.470Z,4.30
2017-09-08T23:43:32.218Z,3.83
2017-09-08T23:45:59.767Z,4.00
2017-09-08T23:48:27.344Z,3.10
2017-09-08T23:50:54.918Z,3.43
2017-09-08T23:53:22.478Z,3.37
2017-09-08T23:55:50.046Z,2.40
2017-09-08T23:58:17.627Z,3.70
